Time;durP1;ratioP1;P1;durP2;ratioP2;P2;SDS_P1;SDS_P2;PMS_P1;PMS_P2;Temp;Humidity;BMP_temperature;BMP_pressure;BME280_temperature;BME280_humidity;BME280_pressure;Samples;Min_cycle;Max_cycle;Signal;HPM_P1;HPM_P2
2022/05/30 00:00:36;;;;;;;24.77;23.45;;;8.60;84.60;;;;;;5088610;28;20274;-69
2022/05/30 00:03:03;;;;;;;24.85;23.25;;;8.60;84.60;;;;;;5084732;28;20586;-71
2022/05/30 00:05:30;;;;;;;25.88;24.48;;;8.60;84.60;;;;;;5078477;28;20224;-71
2022/05/30 00:07:57;;;;;;;26.45;25.05;;;8.50;84.60;;;;;;5071030;28;20589;-71
2022/05/30 00:10:24;;;;;;;25.73;24.33;;;8.50;84.80;;;;;;5083656;28;20632;-71
2022/05/30 00:12:51;;;;;;;24.92;23.40;;;8.50;84.70;;;;;;5088393;28;20275;-71
2022/05/30 00:15:20;;;;;;;25.95;24.45;;;8.50;85.10;;;;;;5088862;28;20239;-71
2022/05/30 00:17:48;;;;;;;26.33;24.73;;;8.50;84.90;;;;;;5076733;28;20200;-70
2022/05/30 00:20:16;;;;;;;26.20;24.70;;;8.40;84.90;;;;;;5089792;28;20241;-72
2022/05/30 00:22:42;;;;;;;26.00;24.50;;;8.40;85.30;;;;;;5095037;28;20196;-70
2022/05/30 00:25:10;;;;;;;25.02;23.52;;;8.30;85.40;;;;;;5088092;28;20215;-70
2022/05/30 00:27:37;;;;;;;25.33;23.92;;;8.30;85.50;;;;;;5082400;28;20313;-71
2022/05/30 00:30:08;;;;;;;25.90;24.30;;;8.30;85.30;;;;;;5072757;28;20192;-71
2022/05/30 00:32:35;;;;;;;26.02;24.52;;;8.30;85.40;;;;;;5086402;28;20562;-71
2022/05/30 00:35:05;;;;;;;26.00;24.60;;;8.20;85.50;;;;;;5083024;28;20220;-71
2022/05/30 00:37:32;;;;;;;26.33;24.73;;;8.20;85.70;;;;;;5070486;28;20244;-71
2022/05/30 00:39:59;;;;;;;25.05;23.65;;;8.20;85.80;;;;;;5082188;28;20669;-72
2022/05/30 00:42:27;;;;;;;24.83;23.33;;;8.10;85.90;;;;;;5090027;28;20657;-71
2022/05/30 00:44:55;;;;;;;25.42;24.05;;;8.20;86.00;;;;;;5076515;28;20208;-70
2022/05/30 00:47:25;;;;;;;25.50;24.10;;;8.10;86.20;;;;;;5073263;28;20348;-71
2022/05/30 00:49:52;;;;;;;25.95;24.38;;;8.10;86.10;;;;;;5078054;28;20203;-76
2022/05/30 00:52:24;;;;;;;25.73;24.25;;;8.00;86.30;;;;;;5092870;28;20261;-72
2022/05/30 00:54:55;;;;;;;24.85;23.30;;;8.10;86.10;;;;;;5088105;28;20220;-73
2022/05/30 00:57:25;;;;;;;25.60;24.30;;;8.10;86.20;;;;;;5084111;28;20192;-71
2022/05/30 00:59:54;;;;;;;25.30;23.90;;;8.10;86.10;;;;;;5069074;28;20200;-72
2022/05/30 01:02:22;;;;;;;25.40;24.00;;;8.10;86.10;;;;;;5086637;28;20199;-71
2022/05/30 01:07:36;;;;;;;25.77;24.17;;;8.00;86.20;;;;;;5083253;28;20864;-71
2022/05/30 01:10:06;;;;;;;26.83;25.33;;;8.00;86.40;;;;;;5087364;28;20589;-75
2022/05/30 01:12:41;;;;;;;24.98;23.48;;;8.00;86.40;;;;;;5084897;28;20202;-72
2022/05/30 01:15:13;;;;;;;26.00;24.60;;;8.00;86.20;;;;;;5082946;28;20886;-71
2022/05/30 01:17:51;;;;;;;26.05;24.55;;;8.00;85.60;;;;;;5069427;28;20713;-70
2022/05/30 01:20:31;;;;;;;24.98;23.55;;;7.90;85.60;;;;;;5072298;28;20693;-69
2022/05/30 01:23:31;;;;;;;24.85;23.55;;;7.90;86.00;;;;;;5088073;28;20199;-71
2022/05/30 01:26:25;;;;;;;25.25;23.85;;;7.80;86.40;;;;;;5072607;28;20268;-73
2022/05/30 01:28:59;;;;;;;25.35;23.95;;;7.80;86.40;;;;;;5082588;28;20758;-71
2022/05/30 01:31:26;;;;;;;26.05;24.38;;;7.70;86.10;;;;;;5079925;28;20197;-71
2022/05/30 01:33:53;;;;;;;25.25;23.65;;;7.60;86.50;;;;;;5069204;28;20655;-70
2022/05/30 01:36:23;;;;;;;25.30;23.90;;;7.50;86.90;;;;;;5075345;28;20216;-70
2022/05/30 01:38:50;;;;;;;26.05;24.60;;;7.50;86.70;;;;;;5079380;28;20192;-71
2022/05/30 01:41:17;;;;;;;26.25;24.42;;;7.40;86.90;;;;;;5073306;28;20850;-71
2022/05/30 01:43:44;;;;;;;26.35;24.80;;;7.30;87.20;;;;;;5073538;28;20287;-71
2022/05/30 01:46:15;;;;;;;26.00;24.50;;;7.40;87.20;;;;;;5082430;28;20272;-71
2022/05/30 01:48:43;;;;;;;25.42;23.83;;;7.30;87.20;;;;;;5071929;28;20209;-70
2022/05/30 01:51:10;;;;;;;24.40;23.00;;;7.30;87.20;;;;;;5089033;28;20204;-70
2022/05/30 01:53:37;;;;;;;24.50;23.20;;;7.30;86.90;;;;;;5072330;28;20195;-73
2022/05/30 01:56:04;;;;;;;26.45;24.92;;;7.20;87.00;;;;;;5075103;28;20246;-72
2022/05/30 01:58:32;;;;;;;25.45;24.10;;;7.20;87.30;;;;;;5087950;28;20192;-70
2022/05/30 02:00:59;;;;;;;26.27;24.88;;;7.20;87.60;;;;;;5088942;28;20272;-71
2022/05/30 02:03:30;;;;;;;25.15;23.75;;;7.20;87.60;;;;;;5081108;28;20295;-71
2022/05/30 02:05:57;;;;;;;25.50;24.08;;;7.20;87.30;;;;;;5084549;28;20212;-71
2022/05/30 02:08:24;;;;;;;25.40;23.90;;;7.20;87.40;;;;;;5085765;28;20211;-71
2022/05/30 02:10:51;;;;;;;26.13;24.67;;;7.20;87.70;;;;;;5077202;28;20195;-71
2022/05/30 02:13:18;;;;;;;25.35;23.85;;;7.20;87.80;;;;;;5077927;28;20196;-71
2022/05/30 02:18:30;;;;;;;25.73;24.23;;;7.20;87.90;;;;;;5072809;28;20270;-71
2022/05/30 02:20:57;;;;;;;26.02;24.63;;;7.20;88.10;;;;;;5079871;28;20198;-70
2022/05/30 02:23:24;;;;;;;25.08;23.67;;;7.20;88.10;;;;;;5078630;28;20196;-73
2022/05/30 02:25:51;;;;;;;25.42;23.92;;;7.30;88.20;;;;;;5085528;28;20234;-73
2022/05/30 02:28:18;;;;;;;25.13;23.60;;;7.30;88.10;;;;;;5071170;28;20225;-72
2022/05/30 02:30:45;;;;;;;25.55;24.05;;;7.30;88.10;;;;;;5077537;28;20658;-71
2022/05/30 02:38:41;;;;;;;25.92;24.17;;;7.40;87.70;;;;;;5072038;28;20203;-70
2022/05/30 02:41:08;;;;;;;25.85;24.45;;;7.50;87.60;;;;;;5083713;28;20289;-71
2022/05/30 02:43:35;;;;;;;25.63;24.08;;;7.50;87.20;;;;;;5077468;28;20737;-70
2022/05/30 02:46:02;;;;;;;26.52;25.02;;;7.40;87.10;;;;;;5074883;28;20675;-71
2022/05/30 02:48:29;;;;;;;26.90;25.30;;;7.50;86.90;;;;;;5079473;28;20222;-71
2022/05/30 02:50:57;;;;;;;26.17;24.75;;;7.40;86.90;;;;;;5076900;28;20199;-71
2022/05/30 02:53:24;;;;;;;27.27;24.88;;;7.50;87.10;;;;;;5079785;28;20210;-71
2022/05/30 02:55:51;;;;;;;25.60;23.98;;;7.50;87.00;;;;;;5083430;28;20953;-70
2022/05/30 02:58:18;;;;;;;28.10;26.50;;;7.40;87.20;;;;;;5083583;28;20808;-70
2022/05/30 03:00:45;;;;;;;26.30;24.90;;;7.40;87.30;;;;;;5091261;28;20202;-71
2022/05/30 03:03:12;;;;;;;26.17;24.67;;;7.30;87.50;;;;;;5069145;28;20208;-71
2022/05/30 03:05:39;;;;;;;25.85;24.45;;;7.30;87.90;;;;;;5076237;28;20239;-71
2022/05/30 03:08:09;;;;;;;26.23;24.80;;;7.30;88.10;;;;;;5086044;28;20582;-70
2022/05/30 03:10:36;;;;;;;28.60;27.00;;;7.30;87.90;;;;;;5088217;28;20209;-71
2022/05/30 03:13:04;;;;;;;28.85;27.15;;;7.40;87.50;;;;;;5067767;28;20210;-71
2022/05/30 03:15:31;;;;;;;28.23;26.35;;;7.40;87.30;;;;;;5076065;28;20877;-70
2022/05/30 03:17:58;;;;;;;28.23;26.63;;;7.30;87.40;;;;;;5086473;28;20203;-72
2022/05/30 03:20:25;;;;;;;26.40;24.92;;;7.40;87.00;;;;;;5080239;28;20203;-70
2022/05/30 03:22:56;;;;;;;27.00;25.30;;;7.30;87.30;;;;;;5072730;28;20207;-71
2022/05/30 03:25:24;;;;;;;29.63;27.77;;;7.20;87.30;;;;;;5081427;28;20209;-70
2022/05/30 03:27:52;;;;;;;26.52;24.92;;;7.20;87.60;;;;;;5069390;28;20197;-72
2022/05/30 03:30:20;;;;;;;27.17;25.52;;;7.30;87.40;;;;;;5085899;28;20191;-69
2022/05/30 03:32:47;;;;;;;28.35;26.65;;;7.20;87.70;;;;;;5081797;28;20198;-70
2022/05/30 03:35:14;;;;;;;27.80;26.20;;;7.20;87.90;;;;;;5085871;28;20562;-70
2022/05/30 03:37:42;;;;;;;28.23;26.52;;;7.40;87.60;;;;;;5080982;28;20196;-70
2022/05/30 03:40:11;;;;;;;27.02;25.33;;;7.40;86.90;;;;;;5085764;28;20201;-71
2022/05/30 03:42:40;;;;;;;27.83;26.15;;;7.40;87.20;;;;;;5078028;28;20191;-72
2022/05/30 03:45:09;;;;;;;27.35;25.70;;;7.40;87.00;;;;;;5079728;28;20223;-70
2022/05/30 03:47:37;;;;;;;33.92;32.08;;;7.40;87.20;;;;;;5084844;28;20208;-73
2022/05/30 03:50:05;;;;;;;29.65;28.00;;;7.40;87.80;;;;;;5089707;28;20321;-70
2022/05/30 03:52:32;;;;;;;26.17;24.58;;;7.50;87.90;;;;;;5088255;28;20201;-71
2022/05/30 03:54:59;;;;;;;26.48;24.90;;;7.70;86.70;;;;;;5072286;28;20224;-70
2022/05/30 03:57:26;;;;;;;28.10;26.50;;;7.80;85.80;;;;;;5082163;28;20192;-71
2022/05/30 03:59:54;;;;;;;29.92;27.90;;;7.80;85.20;;;;;;5074324;28;20224;-69
2022/05/30 04:02:21;;;;;;;25.67;24.08;;;7.70;85.30;;;;;;5100188;28;20754;-69
2022/05/30 04:04:48;;;;;;;26.92;25.13;;;7.70;84.80;;;;;;5078690;28;20205;-68
2022/05/30 04:07:15;;;;;;;26.63;25.02;;;7.70;85.10;;;;;;5069964;28;20640;-69
2022/05/30 04:09:42;;;;;;;26.77;25.20;;;7.70;85.10;;;;;;5083027;28;20212;-70
2022/05/30 04:12:10;;;;;;;28.17;26.67;;;7.80;85.00;;;;;;5093412;28;20209;-69
2022/05/30 04:14:37;;;;;;;28.08;26.35;;;7.90;84.80;;;;;;5073198;28;20204;-69
2022/05/30 04:17:06;;;;;;;26.95;24.90;;;7.90;84.50;;;;;;5073238;28;20235;-69
2022/05/30 04:19:33;;;;;;;28.20;26.50;;;8.00;84.20;;;;;;5088062;28;20238;-68
2022/05/30 04:22:00;;;;;;;26.35;24.85;;;8.00;84.30;;;;;;5087324;28;20654;-69
2022/05/30 04:24:28;;;;;;;26.45;24.95;;;8.20;84.10;;;;;;5078330;28;20196;-69
2022/05/30 04:26:55;;;;;;;27.70;25.92;;;8.30;83.50;;;;;;5072478;28;20205;-68
2022/05/30 04:29:22;;;;;;;28.02;26.33;;;8.40;82.90;;;;;;5078144;28;20323;-69
2022/05/30 04:31:49;;;;;;;26.25;24.70;;;8.50;82.40;;;;;;5084596;28;20195;-69
2022/05/30 04:34:18;;;;;;;29.77;28.08;;;8.40;82.30;;;;;;5076094;28;20202;-69
2022/05/30 04:36:44;;;;;;;27.30;25.50;;;8.50;82.30;;;;;;5079191;28;20222;-69
2022/05/30 04:39:11;;;;;;;26.40;24.67;;;8.50;81.90;;;;;;5077461;28;20218;-69
2022/05/30 04:41:38;;;;;;;25.98;24.48;;;8.70;81.60;;;;;;5085727;28;20723;-69
2022/05/30 04:44:05;;;;;;;26.50;24.63;;;8.70;81.00;;;;;;5084284;28;20195;-69
2022/05/30 04:46:32;;;;;;;27.55;25.35;;;8.70;81.10;;;;;;5075312;28;20225;-69
2022/05/30 04:49:00;;;;;;;27.50;25.83;;;8.70;80.90;;;;;;5068595;28;20234;-69
2022/05/30 04:51:28;;;;;;;29.13;27.42;;;8.70;80.80;;;;;;5067932;28;20203;-69
2022/05/30 04:53:55;;;;;;;28.40;26.90;;;8.50;80.90;;;;;;5066409;28;20593;-68
2022/05/30 04:56:22;;;;;;;26.88;25.25;;;8.50;81.10;;;;;;5069646;28;20602;-69
2022/05/30 04:58:51;;;;;;;26.67;25.05;;;8.50;81.10;;;;;;5074161;28;20204;-69
2022/05/30 05:01:19;;;;;;;26.08;24.67;;;8.60;81.20;;;;;;5070132;28;20197;-68
2022/05/30 05:03:46;;;;;;;26.55;24.98;;;8.60;81.50;;;;;;5068575;28;20231;-69
2022/05/30 05:06:15;;;;;;;29.88;28.05;;;8.60;81.90;;;;;;5071733;28;20220;-69
2022/05/30 05:08:55;;;;;;;25.63;24.13;;;8.70;81.90;;;;;;5068993;28;20222;-69
2022/05/30 05:11:24;;;;;;;27.48;25.98;;;8.90;81.70;;;;;;5067274;28;21261;-70
2022/05/30 05:13:52;;;;;;;27.13;25.45;;;9.00;81.60;;;;;;5090024;28;20196;-72
2022/05/30 05:16:21;;;;;;;28.05;26.35;;;9.00;81.40;;;;;;5084146;28;20566;-69
2022/05/30 05:18:49;;;;;;;28.45;26.75;;;9.20;81.20;;;;;;5072808;28;20218;-71
2022/05/30 05:21:18;;;;;;;28.08;26.42;;;9.40;80.80;;;;;;5076398;28;20190;-74
2022/05/30 05:23:45;;;;;;;33.03;31.13;;;9.50;80.60;;;;;;5077228;28;20205;-70
2022/05/30 05:26:14;;;;;;;28.40;26.80;;;9.60;80.10;;;;;;5087722;28;20587;-70
2022/05/30 05:28:41;;;;;;;28.52;26.70;;;9.70;79.80;;;;;;5081283;28;20689;-71
2022/05/30 05:31:08;;;;;;;28.15;26.30;;;9.80;79.80;;;;;;5078499;28;20211;-73
2022/05/30 05:33:35;;;;;;;29.38;27.45;;;9.90;79.00;;;;;;5089250;28;20575;-73
2022/05/30 05:36:03;;;;;;;29.50;27.48;;;10.00;78.70;;;;;;5085875;28;20211;-70
2022/05/30 05:38:30;;;;;;;27.95;26.25;;;10.20;78.60;;;;;;5084495;28;20200;-77
2022/05/30 05:40:58;;;;;;;28.27;26.60;;;10.30;77.70;;;;;;5085463;28;20298;-71
2022/05/30 05:43:26;;;;;;;28.93;27.13;;;10.40;77.00;;;;;;5086459;28;20490;-72
2022/05/30 05:45:53;;;;;;;30.08;28.23;;;10.50;76.30;;;;;;5080951;28;20470;-71
2022/05/30 05:48:20;;;;;;;29.87;28.03;;;10.60;75.80;;;;;;5076684;28;20283;-73
2022/05/30 05:50:47;;;;;;;31.17;29.37;;;10.60;75.80;;;;;;5074407;28;20566;-75
2022/05/30 05:53:14;;;;;;;30.67;28.47;;;10.70;76.10;;;;;;5084145;28;20465;-73
2022/05/30 05:55:41;;;;;;;29.93;28.07;;;10.80;76.40;;;;;;5072177;28;20539;-72
2022/05/30 05:58:08;;;;;;;29.40;27.60;;;10.80;76.70;;;;;;5085468;28;20458;-71
2022/05/30 06:00:37;;;;;;;32.43;30.40;;;10.90;76.80;;;;;;5080221;28;20449;-72
2022/05/30 06:03:04;;;;;;;30.90;28.90;;;11.10;76.00;;;;;;5073474;28;20457;-71
2022/05/30 06:05:31;;;;;;;32.20;29.90;;;11.20;76.20;;;;;;5089908;28;20483;-71
2022/05/30 06:08:00;;;;;;;31.00;29.00;;;11.30;76.00;;;;;;5076503;28;20561;-71
2022/05/30 06:10:27;;;;;;;30.43;28.37;;;11.40;75.90;;;;;;5083030;28;20563;-72
2022/05/30 06:12:54;;;;;;;32.03;30.00;;;11.40;75.80;;;;;;5087324;28;20462;-71
2022/05/30 06:15:21;;;;;;;33.10;31.00;;;11.70;75.30;;;;;;5086953;28;20572;-70
2022/05/30 06:17:50;;;;;;;31.37;29.37;;;11.90;74.50;;;;;;5088611;28;20514;-72
2022/05/30 06:20:18;;;;;;;34.30;32.20;;;11.70;74.50;;;;;;5077033;28;20457;-70
2022/05/30 06:22:45;;;;;;;31.00;29.00;;;11.80;74.50;;;;;;5098108;28;20473;-71
2022/05/30 06:25:12;;;;;;;32.60;29.83;;;11.80;74.50;;;;;;5068586;28;20487;-71
2022/05/30 06:27:39;;;;;;;31.13;29.30;;;11.90;74.60;;;;;;5083234;28;20477;-72
2022/05/30 06:30:07;;;;;;;32.80;30.60;;;11.90;74.50;;;;;;5083909;28;20476;-73
2022/05/30 06:32:34;;;;;;;32.30;30.20;;;11.90;74.10;;;;;;5080735;28;20466;-72
2022/05/30 06:35:02;;;;;;;32.67;30.40;;;12.00;74.50;;;;;;5088121;28;20473;-74
2022/05/30 06:37:30;;;;;;;31.47;29.13;;;12.10;73.90;;;;;;5081247;28;20460;-75
2022/05/30 06:39:57;;;;;;;32.60;30.60;;;12.20;73.30;;;;;;5071771;28;21024;-71
2022/05/30 06:42:24;;;;;;;31.37;29.27;;;12.30;73.00;;;;;;5075954;28;20472;-72
2022/05/30 06:44:51;;;;;;;32.87;30.47;;;12.30;72.60;;;;;;5086649;28;20466;-73
2022/05/30 06:47:18;;;;;;;32.40;30.10;;;12.30;72.70;;;;;;5076058;28;20447;-72
2022/05/30 06:49:46;;;;;;;31.30;29.40;;;12.40;72.50;;;;;;5081479;28;20469;-69
2022/05/30 06:52:15;;;;;;;30.40;28.60;;;12.30;72.70;;;;;;5077875;28;20465;-70
2022/05/30 06:54:42;;;;;;;32.40;29.90;;;12.40;72.50;;;;;;5085072;28;20538;-71
2022/05/30 06:59:53;;;;;;;31.80;29.60;;;12.50;72.30;;;;;;5081120;28;20480;-71
2022/05/30 07:02:20;;;;;;;31.20;29.10;;;12.50;71.80;;;;;;5079194;28;21118;-70
2022/05/30 07:04:48;;;;;;;33.00;30.50;;;12.60;71.60;;;;;;5087190;28;20467;-70
2022/05/30 07:07:16;;;;;;;31.57;29.57;;;12.70;71.00;;;;;;5084683;28;20468;-73
2022/05/30 07:09:43;;;;;;;31.03;29.23;;;12.70;71.30;;;;;;5085282;28;20465;-71
2022/05/30 07:12:11;;;;;;;31.13;29.23;;;12.90;70.40;;;;;;5079042;28;20453;-70
2022/05/30 07:14:39;;;;;;;31.97;29.87;;;13.00;69.50;;;;;;5085378;28;20831;-70
2022/05/30 07:17:07;;;;;;;30.77;28.60;;;13.20;69.50;;;;;;5079546;28;20797;-68
2022/05/30 07:19:34;;;;;;;31.60;29.70;;;13.20;68.80;;;;;;5083009;28;20462;-69
2022/05/30 07:22:02;;;;;;;30.93;28.90;;;13.30;68.50;;;;;;5087053;28;20453;-68
2022/05/30 07:24:30;;;;;;;31.43;29.47;;;13.40;67.50;;;;;;5098993;28;20461;-68
2022/05/30 07:26:57;;;;;;;31.27;29.37;;;13.40;67.80;;;;;;5086405;28;20940;-69
2022/05/30 07:29:26;;;;;;;30.83;29.13;;;13.50;67.00;;;;;;5086727;28;20469;-68
2022/05/30 07:31:58;;;;;;;31.97;30.17;;;13.50;66.70;;;;;;5085786;28;20513;-69
2022/05/30 07:34:25;;;;;;;30.37;28.57;;;13.50;67.00;;;;;;5083798;28;20459;-69
2022/05/30 07:36:53;;;;;;;32.53;30.50;;;13.40;66.60;;;;;;5077611;28;20499;-69
2022/05/30 07:39:20;;;;;;;31.03;29.13;;;13.40;65.90;;;;;;5082009;28;20982;-69
2022/05/30 07:41:49;;;;;;;30.10;28.20;;;13.70;66.20;;;;;;5082033;28;20557;-69
2022/05/30 07:44:16;;;;;;;32.03;29.87;;;13.80;65.50;;;;;;5088912;28;20453;-68
2022/05/30 07:46:44;;;;;;;31.40;29.40;;;13.90;65.30;;;;;;5088714;28;20476;-68
2022/05/30 07:49:12;;;;;;;30.90;29.00;;;14.00;65.10;;;;;;5090195;28;20969;-68
2022/05/30 07:51:42;;;;;;;29.97;28.07;;;14.00;64.70;;;;;;5084864;28;20548;-69
2022/05/30 07:54:12;;;;;;;32.20;30.03;;;14.00;64.60;;;;;;5082026;28;20492;-69
2022/05/30 07:56:39;;;;;;;28.87;26.97;;;14.10;64.50;;;;;;5092470;28;21081;-69
2022/05/30 07:59:07;;;;;;;30.60;28.40;;;14.10;63.30;;;;;;5084599;28;20502;-69
2022/05/30 08:01:34;;;;;;;31.03;29.03;;;14.30;62.60;;;;;;5086259;28;20458;-69
2022/05/30 08:04:01;;;;;;;30.43;28.50;;;14.40;62.70;;;;;;5089184;28;20793;-69
2022/05/30 08:06:30;;;;;;;30.43;28.43;;;14.40;62.80;;;;;;5080623;28;20485;-70
2022/05/30 08:08:58;;;;;;;28.13;26.43;;;14.20;62.00;;;;;;5093351;28;20469;-68
2022/05/30 08:11:26;;;;;;;28.20;26.70;;;14.40;61.00;;;;;;5077325;28;20557;-69
2022/05/30 08:13:55;;;;;;;27.20;25.77;;;14.60;61.00;;;;;;5081232;28;20449;-69
2022/05/30 08:16:27;;;;;;;30.53;28.73;;;14.60;60.20;;;;;;5091914;28;20492;-69
2022/05/30 08:18:54;;;;;;;31.00;29.10;;;14.60;59.80;;;;;;5075325;28;20454;-69
2022/05/30 08:21:21;;;;;;;27.90;26.30;;;14.50;61.40;;;;;;5085114;28;20457;-70
2022/05/30 08:23:48;;;;;;;30.27;28.50;;;14.60;60.90;;;;;;5086214;28;20450;-70
2022/05/30 08:26:15;;;;;;;28.67;27.07;;;14.70;61.80;;;;;;5075561;28;20482;-69
2022/05/30 08:28:42;;;;;;;28.37;26.73;;;14.90;60.60;;;;;;5088393;28;21037;-69
2022/05/30 08:31:10;;;;;;;30.97;29.03;;;14.90;60.80;;;;;;5088047;28;20546;-69
2022/05/30 08:33:38;;;;;;;29.40;27.60;;;15.10;61.30;;;;;;5083607;28;20460;-69
2022/05/30 08:36:07;;;;;;;27.43;25.83;;;15.30;60.50;;;;;;5083930;28;20496;-70
2022/05/30 08:38:36;;;;;;;29.70;27.60;;;15.40;59.00;;;;;;5078294;28;20996;-69
2022/05/30 08:43:50;;;;;;;27.67;26.00;;;15.40;57.60;;;;;;5093232;28;20440;-69
2022/05/30 08:46:31;;;;;;;29.90;28.27;;;15.40;56.10;;;;;;5087276;28;20485;-69
2022/05/30 08:49:11;;;;;;;27.50;26.00;;;15.50;55.80;;;;;;5085470;28;20472;-69
2022/05/30 08:52:05;;;;;;;29.77;27.70;;;15.60;55.70;;;;;;5085838;28;21202;-69
2022/05/30 08:54:43;;;;;;;29.00;27.30;;;15.70;55.00;;;;;;5076652;28;20511;-69
2022/05/30 08:57:17;;;;;;;27.60;26.00;;;15.60;55.00;;;;;;5081452;28;20472;-69
2022/05/30 08:59:59;;;;;;;31.40;29.43;;;15.70;54.00;;;;;;5075406;28;20453;-69
2022/05/30 09:02:32;;;;;;;27.20;25.67;;;15.70;54.10;;;;;;5074982;28;20464;-69
2022/05/30 09:05:07;;;;;;;28.57;26.87;;;15.90;53.80;;;;;;5068945;28;20470;-69
2022/05/30 09:07:41;;;;;;;28.40;26.70;;;16.10;53.60;;;;;;5083938;28;20446;-69
2022/05/30 09:10:14;;;;;;;27.33;25.73;;;16.40;52.00;;;;;;5084844;28;20576;-69
2022/05/30 09:12:46;;;;;;;28.70;26.80;;;16.10;51.80;;;;;;5082315;28;20454;-69
2022/05/30 09:15:18;;;;;;;27.63;25.90;;;16.10;52.20;;;;;;5082332;28;20523;-69
2022/05/30 09:17:49;;;;;;;28.70;26.90;;;16.50;52.10;;;;;;5080984;28;20457;-69
2022/05/30 09:20:20;;;;;;;27.40;25.80;;;16.80;52.20;;;;;;5078460;28;20553;-70
2022/05/30 09:22:47;;;;;;;28.33;26.43;;;16.70;51.30;;;;;;5076190;28;20942;-70
2022/05/30 09:28:03;;;;;;;28.80;27.10;;;17.00;50.60;;;;;;5083989;28;20454;-69
2022/05/30 09:30:40;;;;;;;27.03;25.43;;;17.10;50.10;;;;;;5081518;28;20483;-69
2022/05/30 09:33:14;;;;;;;28.90;27.10;;;17.30;49.20;;;;;;5079779;28;20449;-69
2022/05/30 09:35:43;;;;;;;27.83;26.20;;;17.20;48.70;;;;;;5088560;28;20532;-68
2022/05/30 09:38:17;;;;;;;26.70;25.00;;;16.90;48.30;;;;;;5089051;28;20460;-68
2022/05/30 09:40:48;;;;;;;26.90;25.27;;;16.90;49.10;;;;;;5083036;28;20547;-69
2022/05/30 09:43:25;;;;;;;27.50;26.00;;;17.10;49.10;;;;;;5091296;28;20484;-69
2022/05/30 09:45:51;;;;;;;27.73;25.87;;;17.20;47.00;;;;;;5077847;28;20530;-70
2022/05/30 09:48:19;;;;;;;28.67;27.10;;;17.00;45.70;;;;;;5087648;28;20462;-69
2022/05/30 09:50:50;;;;;;;26.97;25.37;;;17.10;44.90;;;;;;5081417;28;20481;-70
2022/05/30 09:53:41;;;;;;;26.83;25.17;;;17.20;44.00;;;;;;5080941;28;20516;-69
2022/05/30 09:56:10;;;;;;;26.90;25.30;;;17.40;43.90;;;;;;5089249;28;20560;-70
2022/05/30 09:58:46;;;;;;;28.90;27.30;;;17.60;43.50;;;;;;5082747;28;21195;-69
2022/05/30 10:01:24;;;;;;;28.17;26.47;;;17.80;43.60;;;;;;5077038;28;20465;-69
2022/05/30 10:03:54;;;;;;;27.30;25.80;;;17.90;43.10;;;;;;5083138;28;20465;-76
2022/05/30 10:06:26;;;;;;;27.60;26.10;;;18.20;42.70;;;;;;5084417;28;20477;-73
2022/05/30 10:09:09;;;;;;;27.70;26.00;;;18.30;43.60;;;;;;5085004;28;20476;-70
2022/05/30 10:11:37;;;;;;;28.77;27.00;;;18.60;43.70;;;;;;5081490;28;20516;-69
2022/05/30 10:14:19;;;;;;;27.90;26.40;;;19.10;43.90;;;;;;5085097;28;20512;-71
2022/05/30 10:16:47;;;;;;;27.87;26.37;;;19.60;42.70;;;;;;5081198;28;20472;-70
2022/05/30 10:19:27;;;;;;;29.30;27.47;;;19.70;42.40;;;;;;5100549;28;20459;-71
2022/05/30 10:28:17;;;;;;;27.83;26.33;;;19.60;39.70;;;;;;5087030;28;21031;-75
2022/05/30 10:30:59;;;;;;;28.23;26.50;;;19.60;39.10;;;;;;5085602;28;20482;-71
2022/05/30 10:33:47;;;;;;;27.33;25.73;;;19.50;37.50;;;;;;5079346;28;20920;-70
2022/05/30 10:36:20;;;;;;;27.63;25.80;;;19.00;39.00;;;;;;5085911;28;20517;-70
2022/05/30 10:39:02;;;;;;;28.63;27.03;;;18.90;40.60;;;;;;5084052;28;20499;-70
2022/05/30 10:41:37;;;;;;;28.50;26.80;;;19.20;41.50;;;;;;5068224;28;20461;-70
2022/05/30 10:44:10;;;;;;;26.03;24.33;;;19.50;41.70;;;;;;5072671;28;20461;-74
2022/05/30 10:46:45;;;;;;;28.97;27.07;;;19.90;40.20;;;;;;5086579;28;20526;-73
2022/05/30 10:49:15;;;;;;;27.40;25.70;;;20.30;40.60;;;;;;5069340;28;20454;-74
2022/05/30 10:51:52;;;;;;;28.00;26.40;;;20.60;38.90;;;;;;5101188;28;20564;-74
2022/05/30 10:54:27;;;;;;;26.60;25.20;;;20.90;38.00;;;;;;5080581;28;20457;-74
2022/05/30 10:57:11;;;;;;;27.33;25.73;;;20.80;36.60;;;;;;5074057;28;20484;-73
2022/05/30 10:59:42;;;;;;;27.67;26.07;;;20.50;36.40;;;;;;5077862;28;20572;-73
2022/05/30 11:02:16;;;;;;;25.97;24.57;;;20.20;37.40;;;;;;5078938;28;20448;-74
2022/05/30 11:04:51;;;;;;;26.10;24.60;;;20.10;37.10;;;;;;5086445;28;20487;-71
2022/05/30 11:07:44;;;;;;;29.33;27.73;;;20.00;36.70;;;;;;5096662;28;20449;-74
2022/05/30 11:10:32;;;;;;;29.73;28.00;;;19.80;36.60;;;;;;5078974;28;20489;-76
2022/05/30 11:13:05;;;;;;;27.10;25.10;;;19.30;37.50;;;;;;5084559;28;20536;-77
2022/05/30 11:15:37;;;;;;;27.10;25.50;;;19.20;38.00;;;;;;5080659;28;20872;-75
2022/05/30 11:18:10;;;;;;;27.37;25.87;;;19.00;38.40;;;;;;5074491;28;20461;-74
2022/05/30 11:20:42;;;;;;;26.90;25.30;;;19.20;39.20;;;;;;5086084;28;20890;-72
2022/05/30 11:23:11;;;;;;;27.30;25.50;;;19.40;38.40;;;;;;5084446;28;21224;-71
2022/05/30 11:26:06;;;;;;;26.47;24.77;;;19.50;38.30;;;;;;5103561;28;20481;-72
2022/05/30 11:28:47;;;;;;;26.97;25.27;;;19.40;38.50;;;;;;5084442;28;20476;-74
2022/05/30 11:31:21;;;;;;;29.17;27.57;;;19.00;39.00;;;;;;5095287;28;20472;-74
2022/05/30 11:34:05;;;;;;;27.87;26.27;;;18.90;38.80;;;;;;5083883;28;20489;-72
2022/05/30 11:37:14;;;;;;;28.13;26.43;;;18.60;39.50;;;;;;5071312;28;20482;-76
2022/05/30 11:39:56;;;;;;;26.80;25.33;;;18.50;39.70;;;;;;5028153;28;20484;-72
2022/05/30 11:42:39;;;;;;;26.37;24.77;;;18.70;39.80;;;;;;5075420;28;20811;-72
2022/05/30 11:45:24;;;;;;;26.93;25.43;;;18.80;38.90;;;;;;5084786;28;21017;-70
2022/05/30 11:48:02;;;;;;;28.50;26.80;;;18.90;38.70;;;;;;5079921;28;20930;-71
2022/05/30 11:50:34;;;;;;;26.60;25.10;;;19.00;38.30;;;;;;5082472;28;20454;-70
2022/05/30 11:53:27;;;;;;;28.97;27.23;;;19.20;38.60;;;;;;5084274;28;20511;-70
2022/05/30 11:56:01;;;;;;;27.37;25.87;;;19.60;39.40;;;;;;5087421;28;20591;-70
2022/05/30 11:58:42;;;;;;;27.10;25.60;;;19.60;38.40;;;;;;5079644;28;20544;-70
2022/05/30 12:01:11;;;;;;;28.17;26.57;;;19.60;38.30;;;;;;5081824;28;21039;-71
2022/05/30 12:04:28;;;;;;;27.97;26.37;;;19.70;37.80;;;;;;5098296;28;20818;-71
2022/05/30 12:07:22;;;;;;;27.50;26.00;;;20.00;38.40;;;;;;5038556;28;20478;-71
2022/05/30 12:10:08;;;;;;;27.13;25.63;;;20.00;38.80;;;;;;5074911;28;20573;-71
2022/05/30 12:13:04;;;;;;;26.40;24.80;;;20.30;37.60;;;;;;5078008;28;20473;-71
2022/05/30 12:16:04;;;;;;;26.40;24.90;;;20.30;37.40;;;;;;5089870;28;20473;-71
2022/05/30 12:24:39;;;;;;;26.00;24.53;;;20.50;36.10;;;;;;5095667;28;20805;-71
2022/05/30 12:27:11;;;;;;;27.03;25.43;;;20.30;35.90;;;;;;5111094;28;20688;-70
2022/05/30 12:29:50;;;;;;;28.40;26.57;;;20.20;36.20;;;;;;5108146;28;20482;-70
2022/05/30 12:32:37;;;;;;;26.03;24.53;;;20.10;36.60;;;;;;5093541;28;20675;-70
2022/05/30 12:35:32;;;;;;;26.40;25.00;;;20.10;37.40;;;;;;5108811;28;20578;-71
2022/05/30 12:38:14;;;;;;;27.73;26.23;;;20.10;37.60;;;;;;5110774;28;20463;-72
2022/05/30 12:40:44;;;;;;;28.50;26.70;;;20.10;37.00;;;;;;5096417;28;20453;-72
2022/05/30 12:43:43;;;;;;;26.13;24.70;;;19.90;37.40;;;;;;5110969;28;20969;-72
2022/05/30 12:46:22;;;;;;;27.47;25.77;;;19.90;37.40;;;;;;5104872;28;20826;-72
2022/05/30 12:49:07;;;;;;;28.20;26.40;;;20.10;36.60;;;;;;5108967;28;20467;-72
2022/05/30 12:52:01;;;;;;;29.10;27.30;;;20.20;36.70;;;;;;5110532;28;20512;-72
2022/05/30 12:54:46;;;;;;;28.70;27.00;;;20.40;36.30;;;;;;5108275;28;20456;-72
2022/05/30 12:57:39;;;;;;;27.00;25.50;;;20.40;36.70;;;;;;5096828;28;20449;-72
2022/05/30 13:00:15;;;;;;;27.97;26.23;;;20.60;37.10;;;;;;5089072;28;20523;-70
2022/05/30 13:03:27;;;;;;;28.13;26.53;;;21.10;36.90;;;;;;5096697;28;20872;-70
2022/05/30 13:06:13;;;;;;;29.10;27.40;;;21.60;35.30;;;;;;5103887;28;20609;-72
2022/05/30 13:09:06;;;;;;;27.00;25.50;;;21.90;33.90;;;;;;5110185;27;20536;-71
2022/05/30 13:11:49;;;;;;;27.83;26.23;;;21.80;34.20;;;;;;5109900;28;20565;-70
2022/05/30 13:14:24;;;;;;;29.20;27.27;;;21.30;34.80;;;;;;5089943;28;20481;-72
2022/05/30 13:16:53;;;;;;;27.83;26.13;;;21.10;35.30;;;;;;5103020;28;20476;-72
2022/05/30 13:19:20;;;;;;;28.17;26.43;;;21.30;35.10;;;;;;5110040;28;20818;-72
2022/05/30 13:21:50;;;;;;;27.50;26.00;;;21.20;34.70;;;;;;5110784;28;20452;-72
2022/05/30 13:24:29;;;;;;;28.13;26.43;;;21.00;35.20;;;;;;5096660;28;21054;-72